sensor_id;sensor_type;location;lat;lon;timestamp;P1;durP1;ratioP1;P2;durP2;ratioP2
24173;SDS011;12324;48.146;11.502;2023-12-29T00:01:39;6.13;;;2.38;;
24173;SDS011;12324;48.146;11.502;2023-12-29T00:04:06;4.80;;;2.13;;
24173;SDS011;12324;48.146;11.502;2023-12-29T00:06:32;6.15;;;2.38;;
24173;SDS011;12324;48.146;11.502;2023-12-29T00:09:04;2.92;;;1.90;;
24173;SDS011;12324;48.146;11.502;2023-12-29T00:11:31;3.97;;;1.98;;
24173;SDS011;12324;48.146;11.502;2023-12-29T00:13:59;3.97;;;2.05;;
24173;SDS011;12324;48.146;11.502;2023-12-29T00:16:29;3.40;;;1.90;;
24173;SDS011;12324;48.146;11.502;2023-12-29T00:18:56;5.45;;;1.90;;
24173;SDS011;12324;48.146;11.502;2023-12-29T00:21:22;3.63;;;1.75;;
24173;SDS011;12324;48.146;11.502;2023-12-29T00:23:49;3.78;;;1.63;;
24173;SDS011;12324;48.146;11.502;2023-12-29T00:26:16;5.18;;;2.10;;
24173;SDS011;12324;48.146;11.502;2023-12-29T00:28:43;2.97;;;1.90;;
24173;SDS011;12324;48.146;11.502;2023-12-29T00:31:13;4.43;;;2.15;;
24173;SDS011;12324;48.146;11.502;2023-12-29T00:33:44;2.97;;;1.85;;
24173;SDS011;12324;48.146;11.502;2023-12-29T00:36:14;4.60;;;2.20;;
24173;SDS011;12324;48.146;11.502;2023-12-29T00:38:42;3.78;;;1.83;;
24173;SDS011;12324;48.146;11.502;2023-12-29T00:41:09;4.60;;;2.30;;
24173;SDS011;12324;48.146;11.502;2023-12-29T00:43:36;2.90;;;1.90;;
24173;SDS011;12324;48.146;11.502;2023-12-29T00:46:06;5.93;;;2.28;;
24173;SDS011;12324;48.146;11.502;2023-12-29T00:48:35;2.67;;;1.80;;
24173;SDS011;12324;48.146;11.502;2023-12-29T00:51:02;4.45;;;2.00;;
24173;SDS011;12324;48.146;11.502;2023-12-29T00:53:29;5.13;;;2.08;;
24173;SDS011;12324;48.146;11.502;2023-12-29T00:55:59;2.92;;;1.73;;
24173;SDS011;12324;48.146;11.502;2023-12-29T00:58:26;5.53;;;2.10;;
24173;SDS011;12324;48.146;11.502;2023-12-29T01:00:53;6.40;;;3.05;;
24173;SDS011;12324;48.146;11.502;2023-12-29T01:03:20;3.58;;;1.83;;
24173;SDS011;12324;48.146;11.502;2023-12-29T01:05:50;6.93;;;2.22;;
24173;SDS011;12324;48.146;11.502;2023-12-29T01:08:17;4.35;;;2.10;;
24173;SDS011;12324;48.146;11.502;2023-12-29T01:10:44;2.15;;;1.63;;
24173;SDS011;12324;48.146;11.502;2023-12-29T01:13:10;4.57;;;2.20;;
24173;SDS011;12324;48.146;11.502;2023-12-29T01:15:37;6.13;;;2.28;;
24173;SDS011;12324;48.146;11.502;2023-12-29T01:18:06;4.40;;;2.28;;
24173;SDS011;12324;48.146;11.502;2023-12-29T01:20:33;4.07;;;2.13;;
24173;SDS011;12324;48.146;11.502;2023-12-29T01:23:00;5.00;;;2.33;;
24173;SDS011;12324;48.146;11.502;2023-12-29T01:25:27;6.40;;;2.42;;
24173;SDS011;12324;48.146;11.502;2023-12-29T01:27:54;5.07;;;2.22;;
24173;SDS011;12324;48.146;11.502;2023-12-29T01:30:21;4.55;;;2.45;;
24173;SDS011;12324;48.146;11.502;2023-12-29T01:32:49;5.15;;;2.17;;
24173;SDS011;12324;48.146;11.502;2023-12-29T01:35:15;4.00;;;2.20;;
24173;SDS011;12324;48.146;11.502;2023-12-29T01:37:44;3.90;;;2.00;;
24173;SDS011;12324;48.146;11.502;2023-12-29T01:40:11;6.65;;;2.80;;
24173;SDS011;12324;48.146;11.502;2023-12-29T01:42:38;8.82;;;2.45;;
24173;SDS011;12324;48.146;11.502;2023-12-29T01:45:06;3.50;;;1.83;;
24173;SDS011;12324;48.146;11.502;2023-12-29T01:47:47;5.13;;;2.45;;
24173;SDS011;12324;48.146;11.502;2023-12-29T01:50:15;3.15;;;1.98;;
24173;SDS011;12324;48.146;11.502;2023-12-29T01:52:48;5.50;;;2.13;;
24173;SDS011;12324;48.146;11.502;2023-12-29T01:55:18;6.97;;;2.17;;
24173;SDS011;12324;48.146;11.502;2023-12-29T01:57:46;2.83;;;1.90;;
24173;SDS011;12324;48.146;11.502;2023-12-29T02:00:14;3.05;;;1.83;;
24173;SDS011;12324;48.146;11.502;2023-12-29T02:02:42;4.13;;;2.22;;
24173;SDS011;12324;48.146;11.502;2023-12-29T02:05:13;6.45;;;2.58;;
24173;SDS011;12324;48.146;11.502;2023-12-29T02:07:42;5.47;;;2.22;;
24173;SDS011;12324;48.146;11.502;2023-12-29T02:10:09;7.18;;;2.92;;
24173;SDS011;12324;48.146;11.502;2023-12-29T02:12:40;6.57;;;2.45;;
24173;SDS011;12324;48.146;11.502;2023-12-29T02:15:07;4.63;;;2.40;;
24173;SDS011;12324;48.146;11.502;2023-12-29T02:17:39;4.60;;;2.47;;
24173;SDS011;12324;48.146;11.502;2023-12-29T02:20:10;4.10;;;2.25;;
24173;SDS011;12324;48.146;11.502;2023-12-29T02:22:38;4.45;;;2.13;;
24173;SDS011;12324;48.146;11.502;2023-12-29T02:25:05;5.22;;;2.47;;
24173;SDS011;12324;48.146;11.502;2023-12-29T02:33:01;5.78;;;2.15;;
24173;SDS011;12324;48.146;11.502;2023-12-29T02:37:59;5.22;;;2.58;;
24173;SDS011;12324;48.146;11.502;2023-12-29T02:40:27;6.15;;;2.65;;
24173;SDS011;12324;48.146;11.502;2023-12-29T02:42:54;5.40;;;2.95;;
24173;SDS011;12324;48.146;11.502;2023-12-29T02:45:21;5.03;;;2.38;;
24173;SDS011;12324;48.146;11.502;2023-12-29T02:47:48;7.70;;;2.55;;
24173;SDS011;12324;48.146;11.502;2023-12-29T02:50:15;3.05;;;1.90;;
24173;SDS011;12324;48.146;11.502;2023-12-29T02:52:42;7.68;;;2.75;;
24173;SDS011;12324;48.146;11.502;2023-12-29T02:55:09;2.72;;;1.90;;
24173;SDS011;12324;48.146;11.502;2023-12-29T02:57:37;4.03;;;2.40;;
24173;SDS011;12324;48.146;11.502;2023-12-29T03:00:05;4.65;;;2.33;;
24173;SDS011;12324;48.146;11.502;2023-12-29T03:02:32;6.05;;;2.17;;
24173;SDS011;12324;48.146;11.502;2023-12-29T03:04:59;5.25;;;2.53;;
24173;SDS011;12324;48.146;11.502;2023-12-29T03:07:26;3.88;;;2.20;;
24173;SDS011;12324;48.146;11.502;2023-12-29T03:09:53;4.28;;;2.20;;
24173;SDS011;12324;48.146;11.502;2023-12-29T03:12:20;6.35;;;2.25;;
24173;SDS011;12324;48.146;11.502;2023-12-29T03:14:46;7.47;;;2.58;;
24173;SDS011;12324;48.146;11.502;2023-12-29T03:17:13;4.75;;;2.10;;
24173;SDS011;12324;48.146;11.502;2023-12-29T03:19:40;5.63;;;2.22;;
24173;SDS011;12324;48.146;11.502;2023-12-29T03:22:08;3.75;;;2.03;;
24173;SDS011;12324;48.146;11.502;2023-12-29T03:24:36;4.80;;;2.40;;
24173;SDS011;12324;48.146;11.502;2023-12-29T03:27:03;4.22;;;2.38;;
24173;SDS011;12324;48.146;11.502;2023-12-29T03:29:30;5.85;;;2.47;;
24173;SDS011;12324;48.146;11.502;2023-12-29T03:31:57;5.35;;;2.47;;
24173;SDS011;12324;48.146;11.502;2023-12-29T03:34:24;4.07;;;2.10;;
24173;SDS011;12324;48.146;11.502;2023-12-29T03:36:51;8.63;;;2.40;;
24173;SDS011;12324;48.146;11.502;2023-12-29T03:39:18;4.95;;;2.33;;
24173;SDS011;12324;48.146;11.502;2023-12-29T03:41:44;3.80;;;2.22;;
24173;SDS011;12324;48.146;11.502;2023-12-29T03:44:11;5.57;;;2.50;;
24173;SDS011;12324;48.146;11.502;2023-12-29T03:46:38;3.00;;;2.05;;
24173;SDS011;12324;48.146;11.502;2023-12-29T03:49:05;7.57;;;2.53;;
24173;SDS011;12324;48.146;11.502;2023-12-29T03:51:32;7.75;;;2.22;;
24173;SDS011;12324;48.146;11.502;2023-12-29T03:53:59;5.80;;;2.35;;
24173;SDS011;12324;48.146;11.502;2023-12-29T03:56:27;4.45;;;2.40;;
24173;SDS011;12324;48.146;11.502;2023-12-29T03:58:53;3.65;;;1.98;;
24173;SDS011;12324;48.146;11.502;2023-12-29T04:01:20;4.20;;;2.25;;
24173;SDS011;12324;48.146;11.502;2023-12-29T04:03:47;3.03;;;1.92;;
24173;SDS011;12324;48.146;11.502;2023-12-29T04:06:14;5.38;;;2.38;;
24173;SDS011;12324;48.146;11.502;2023-12-29T04:08:41;3.88;;;2.47;;
24173;SDS011;12324;48.146;11.502;2023-12-29T04:11:08;8.57;;;2.75;;
24173;SDS011;12324;48.146;11.502;2023-12-29T04:13:35;5.25;;;2.20;;
24173;SDS011;12324;48.146;11.502;2023-12-29T04:16:01;6.53;;;2.58;;
24173;SDS011;12324;48.146;11.502;2023-12-29T04:18:29;4.03;;;2.33;;
24173;SDS011;12324;48.146;11.502;2023-12-29T04:20:56;4.88;;;2.38;;
24173;SDS011;12324;48.146;11.502;2023-12-29T04:23:23;4.03;;;2.20;;
24173;SDS011;12324;48.146;11.502;2023-12-29T04:25:50;3.70;;;1.98;;
24173;SDS011;12324;48.146;11.502;2023-12-29T04:28:17;4.22;;;2.08;;
24173;SDS011;12324;48.146;11.502;2023-12-29T04:30:43;4.97;;;2.58;;
24173;SDS011;12324;48.146;11.502;2023-12-29T04:33:10;6.10;;;2.42;;
24173;SDS011;12324;48.146;11.502;2023-12-29T04:35:37;3.97;;;2.13;;
24173;SDS011;12324;48.146;11.502;2023-12-29T04:38:04;5.65;;;2.40;;
24173;SDS011;12324;48.146;11.502;2023-12-29T04:40:32;5.90;;;2.42;;
24173;SDS011;12324;48.146;11.502;2023-12-29T04:42:59;4.53;;;2.13;;
24173;SDS011;12324;48.146;11.502;2023-12-29T04:45:26;5.32;;;2.33;;
24173;SDS011;12324;48.146;11.502;2023-12-29T04:47:53;4.40;;;2.15;;
24173;SDS011;12324;48.146;11.502;2023-12-29T04:50:19;6.75;;;2.08;;
24173;SDS011;12324;48.146;11.502;2023-12-29T04:52:46;7.63;;;2.50;;
24173;SDS011;12324;48.146;11.502;2023-12-29T04:55:13;4.57;;;2.28;;
24173;SDS011;12324;48.146;11.502;2023-12-29T04:57:40;5.43;;;2.35;;
24173;SDS011;12324;48.146;11.502;2023-12-29T05:00:07;4.55;;;2.35;;
24173;SDS011;12324;48.146;11.502;2023-12-29T05:02:37;4.70;;;2.53;;
24173;SDS011;12324;48.146;11.502;2023-12-29T05:05:04;4.00;;;2.50;;
24173;SDS011;12324;48.146;11.502;2023-12-29T05:07:31;3.55;;;2.35;;
24173;SDS011;12324;48.146;11.502;2023-12-29T05:09:58;5.95;;;2.25;;
24173;SDS011;12324;48.146;11.502;2023-12-29T05:12:25;6.53;;;2.45;;
24173;SDS011;12324;48.146;11.502;2023-12-29T05:14:51;6.07;;;2.58;;
24173;SDS011;12324;48.146;11.502;2023-12-29T05:17:18;5.00;;;2.53;;
24173;SDS011;12324;48.146;11.502;2023-12-29T05:19:45;5.22;;;2.70;;
24173;SDS011;12324;48.146;11.502;2023-12-29T05:22:12;4.40;;;2.13;;
24173;SDS011;12324;48.146;11.502;2023-12-29T05:24:43;5.13;;;2.45;;
24173;SDS011;12324;48.146;11.502;2023-12-29T05:27:11;5.80;;;2.55;;
24173;SDS011;12324;48.146;11.502;2023-12-29T05:29:38;3.22;;;2.28;;
24173;SDS011;12324;48.146;11.502;2023-12-29T05:32:05;8.32;;;3.10;;
24173;SDS011;12324;48.146;11.502;2023-12-29T05:34:32;4.45;;;1.92;;
24173;SDS011;12324;48.146;11.502;2023-12-29T05:36:59;4.72;;;2.17;;
24173;SDS011;12324;48.146;11.502;2023-12-29T05:39:26;4.55;;;2.53;;
24173;SDS011;12324;48.146;11.502;2023-12-29T05:41:53;6.72;;;2.10;;
24173;SDS011;12324;48.146;11.502;2023-12-29T05:44:20;5.32;;;2.65;;
24173;SDS011;12324;48.146;11.502;2023-12-29T05:46:46;3.63;;;2.20;;
24173;SDS011;12324;48.146;11.502;2023-12-29T05:49:14;8.18;;;3.05;;
24173;SDS011;12324;48.146;11.502;2023-12-29T05:51:41;6.43;;;2.25;;
24173;SDS011;12324;48.146;11.502;2023-12-29T05:54:08;6.40;;;2.97;;
24173;SDS011;12324;48.146;11.502;2023-12-29T05:56:34;6.63;;;2.60;;
24173;SDS011;12324;48.146;11.502;2023-12-29T05:59:01;5.43;;;2.47;;
24173;SDS011;12324;48.146;11.502;2023-12-29T06:01:28;7.70;;;2.60;;
24173;SDS011;12324;48.146;11.502;2023-12-29T06:03:55;7.18;;;2.65;;
24173;SDS011;12324;48.146;11.502;2023-12-29T06:06:22;7.47;;;2.83;;
24173;SDS011;12324;48.146;11.502;2023-12-29T06:08:49;4.07;;;2.22;;
24173;SDS011;12324;48.146;11.502;2023-12-29T06:11:16;4.97;;;2.78;;
24173;SDS011;12324;48.146;11.502;2023-12-29T06:13:43;3.92;;;2.35;;
24173;SDS011;12324;48.146;11.502;2023-12-29T06:16:16;8.63;;;2.97;;
24173;SDS011;12324;48.146;11.502;2023-12-29T06:18:44;4.93;;;2.38;;
24173;SDS011;12324;48.146;11.502;2023-12-29T06:21:11;5.32;;;2.80;;
24173;SDS011;12324;48.146;11.502;2023-12-29T06:23:40;5.55;;;2.25;;
24173;SDS011;12324;48.146;11.502;2023-12-29T06:26:13;6.25;;;2.20;;
24173;SDS011;12324;48.146;11.502;2023-12-29T06:28:44;5.18;;;2.47;;
24173;SDS011;12324;48.146;11.502;2023-12-29T06:31:11;6.40;;;2.45;;
24173;SDS011;12324;48.146;11.502;2023-12-29T06:33:42;5.43;;;2.17;;
24173;SDS011;12324;48.146;11.502;2023-12-29T06:36:09;5.47;;;2.17;;
24173;SDS011;12324;48.146;11.502;2023-12-29T06:38:36;4.30;;;2.15;;
24173;SDS011;12324;48.146;11.502;2023-12-29T06:41:04;4.00;;;2.42;;
24173;SDS011;12324;48.146;11.502;2023-12-29T06:43:31;8.00;;;2.20;;
24173;SDS011;12324;48.146;11.502;2023-12-29T06:45:58;4.13;;;2.22;;
24173;SDS011;12324;48.146;11.502;2023-12-29T06:48:24;5.20;;;2.40;;
24173;SDS011;12324;48.146;11.502;2023-12-29T06:50:51;2.72;;;2.00;;
24173;SDS011;12324;48.146;11.502;2023-12-29T06:53:18;5.35;;;2.25;;
24173;SDS011;12324;48.146;11.502;2023-12-29T06:55:45;4.95;;;2.40;;
24173;SDS011;12324;48.146;11.502;2023-12-29T06:58:12;4.88;;;2.33;;
24173;SDS011;12324;48.146;11.502;2023-12-29T07:00:39;3.53;;;1.83;;
24173;SDS011;12324;48.146;11.502;2023-12-29T07:03:09;5.55;;;2.10;;
24173;SDS011;12324;48.146;11.502;2023-12-29T07:05:38;5.38;;;2.22;;
24173;SDS011;12324;48.146;11.502;2023-12-29T07:08:05;5.55;;;2.20;;
24173;SDS011;12324;48.146;11.502;2023-12-29T07:10:32;5.80;;;2.72;;
24173;SDS011;12324;48.146;11.502;2023-12-29T07:12:58;4.72;;;2.00;;
24173;SDS011;12324;48.146;11.502;2023-12-29T07:15:25;8.07;;;2.45;;
24173;SDS011;12324;48.146;11.502;2023-12-29T07:17:52;6.47;;;2.03;;
24173;SDS011;12324;48.146;11.502;2023-12-29T07:20:19;4.93;;;1.95;;
24173;SDS011;12324;48.146;11.502;2023-12-29T07:22:46;5.07;;;2.08;;
24173;SDS011;12324;48.146;11.502;2023-12-29T07:25:13;2.85;;;1.73;;
24173;SDS011;12324;48.146;11.502;2023-12-29T07:27:40;5.57;;;2.38;;
24173;SDS011;12324;48.146;11.502;2023-12-29T07:30:07;2.90;;;1.75;;
24173;SDS011;12324;48.146;11.502;2023-12-29T07:32:35;4.22;;;1.98;;
24173;SDS011;12324;48.146;11.502;2023-12-29T07:35:01;2.35;;;1.63;;
24173;SDS011;12324;48.146;11.502;2023-12-29T07:37:29;3.13;;;2.00;;
24173;SDS011;12324;48.146;11.502;2023-12-29T07:39:55;6.75;;;2.33;;
24173;SDS011;12324;48.146;11.502;2023-12-29T07:42:22;5.88;;;2.25;;
24173;SDS011;12324;48.146;11.502;2023-12-29T07:44:49;4.78;;;2.00;;
24173;SDS011;12324;48.146;11.502;2023-12-29T07:47:17;6.22;;;2.05;;
24173;SDS011;12324;48.146;11.502;2023-12-29T07:49:44;5.25;;;1.95;;
24173;SDS011;12324;48.146;11.502;2023-12-29T07:52:11;2.88;;;1.67;;
24173;SDS011;12324;48.146;11.502;2023-12-29T07:54:38;2.47;;;1.85;;
24173;SDS011;12324;48.146;11.502;2023-12-29T07:57:05;5.75;;;2.15;;
24173;SDS011;12324;48.146;11.502;2023-12-29T07:59:31;3.13;;;2.10;;
24173;SDS011;12324;48.146;11.502;2023-12-29T08:01:58;3.13;;;2.08;;
24173;SDS011;12324;48.146;11.502;2023-12-29T08:04:25;5.47;;;2.42;;
24173;SDS011;12324;48.146;11.502;2023-12-29T08:06:52;3.65;;;2.03;;
24173;SDS011;12324;48.146;11.502;2023-12-29T08:09:19;7.45;;;3.03;;
24173;SDS011;12324;48.146;11.502;2023-12-29T08:11:46;4.53;;;2.20;;
24173;SDS011;12324;48.146;11.502;2023-12-29T08:14:14;6.88;;;2.58;;
24173;SDS011;12324;48.146;11.502;2023-12-29T08:16:41;6.28;;;2.00;;
24173;SDS011;12324;48.146;11.502;2023-12-29T08:19:08;4.45;;;2.38;;
24173;SDS011;12324;48.146;11.502;2023-12-29T08:21:36;6.35;;;2.60;;
24173;SDS011;12324;48.146;11.502;2023-12-29T08:24:03;4.68;;;1.95;;
24173;SDS011;12324;48.146;11.502;2023-12-29T08:26:30;5.10;;;2.03;;
24173;SDS011;12324;48.146;11.502;2023-12-29T08:28:57;4.28;;;2.20;;
24173;SDS011;12324;48.146;11.502;2023-12-29T08:31:24;5.43;;;2.50;;
24173;SDS011;12324;48.146;11.502;2023-12-29T08:33:52;5.25;;;2.50;;
24173;SDS011;12324;48.146;11.502;2023-12-29T08:36:20;4.50;;;1.92;;
24173;SDS011;12324;48.146;11.502;2023-12-29T08:38:47;6.55;;;2.60;;
24173;SDS011;12324;48.146;11.502;2023-12-29T08:41:14;7.18;;;3.10;;
24173;SDS011;12324;48.146;11.502;2023-12-29T08:43:41;3.85;;;2.30;;
24173;SDS011;12324;48.146;11.502;2023-12-29T08:46:09;7.03;;;2.38;;
24173;SDS011;12324;48.146;11.502;2023-12-29T08:48:36;7.57;;;2.72;;
24173;SDS011;12324;48.146;11.502;2023-12-29T08:51:04;5.85;;;2.05;;
24173;SDS011;12324;48.146;11.502;2023-12-29T08:53:31;3.38;;;2.25;;
24173;SDS011;12324;48.146;11.502;2023-12-29T08:56:02;4.07;;;2.20;;
24173;SDS011;12324;48.146;11.502;2023-12-29T08:58:29;3.72;;;2.05;;
24173;SDS011;12324;48.146;11.502;2023-12-29T09:00:56;7.82;;;2.65;;
24173;SDS011;12324;48.146;11.502;2023-12-29T09:03:23;4.72;;;2.58;;
24173;SDS011;12324;48.146;11.502;2023-12-29T09:05:50;3.47;;;2.25;;
24173;SDS011;12324;48.146;11.502;2023-12-29T09:08:17;5.93;;;2.17;;
24173;SDS011;12324;48.146;11.502;2023-12-29T09:10:43;3.97;;;2.38;;
24173;SDS011;12324;48.146;11.502;2023-12-29T09:13:10;3.85;;;2.13;;
24173;SDS011;12324;48.146;11.502;2023-12-29T09:15:37;2.20;;;1.65;;
24173;SDS011;12324;48.146;11.502;2023-12-29T09:18:05;2.97;;;1.77;;
24173;SDS011;12324;48.146;11.502;2023-12-29T09:20:33;3.33;;;2.08;;
24173;SDS011;12324;48.146;11.502;2023-12-29T09:23:00;4.22;;;2.40;;
24173;SDS011;12324;48.146;11.502;2023-12-29T09:25:26;3.47;;;1.70;;
24173;SDS011;12324;48.146;11.502;2023-12-29T09:27:54;4.07;;;1.90;;
24173;SDS011;12324;48.146;11.502;2023-12-29T09:30:21;5.00;;;2.10;;
24173;SDS011;12324;48.146;11.502;2023-12-29T09:32:47;2.67;;;1.60;;
24173;SDS011;12324;48.146;11.502;2023-12-29T09:35:14;4.55;;;2.05;;
24173;SDS011;12324;48.146;11.502;2023-12-29T09:37:42;2.20;;;1.70;;
24173;SDS011;12324;48.146;11.502;2023-12-29T09:40:09;3.65;;;1.83;;
24173;SDS011;12324;48.146;11.502;2023-12-29T09:42:37;3.25;;;1.80;;
24173;SDS011;12324;48.146;11.502;2023-12-29T09:45:07;6.63;;;2.25;;
24173;SDS011;12324;48.146;11.502;2023-12-29T09:47:40;2.42;;;1.63;;
24173;SDS011;12324;48.146;11.502;2023-12-29T09:50:12;3.05;;;1.60;;
24173;SDS011;12324;48.146;11.502;2023-12-29T09:52:40;2.78;;;1.88;;
24173;SDS011;12324;48.146;11.502;2023-12-29T09:55:10;3.58;;;1.88;;
24173;SDS011;12324;48.146;11.502;2023-12-29T09:57:37;3.70;;;2.03;;
24173;SDS011;12324;48.146;11.502;2023-12-29T10:00:05;2.83;;;1.80;;
24173;SDS011;12324;48.146;11.502;2023-12-29T10:02:36;2.25;;;1.63;;
24173;SDS011;12324;48.146;11.502;2023-12-29T10:05:03;3.20;;;1.73;;
24173;SDS011;12324;48.146;11.502;2023-12-29T10:07:32;4.53;;;1.80;;
24173;SDS011;12324;48.146;11.502;2023-12-29T10:10:04;4.05;;;2.05;;
24173;SDS011;12324;48.146;11.502;2023-12-29T10:12:32;3.05;;;1.70;;
24173;SDS011;12324;48.146;11.502;2023-12-29T10:22:47;3.38;;;1.60;;
24173;SDS011;12324;48.146;11.502;2023-12-29T10:25:22;1.45;;;1.25;;
24173;SDS011;12324;48.146;11.502;2023-12-29T10:27:49;2.47;;;1.60;;
24173;SDS011;12324;48.146;11.502;2023-12-29T10:30:17;3.42;;;1.60;;
24173;SDS011;12324;48.146;11.502;2023-12-29T10:32:56;2.97;;;1.60;;
24173;SDS011;12324;48.146;11.502;2023-12-29T10:35:25;5.18;;;1.77;;
24173;SDS011;12324;48.146;11.502;2023-12-29T10:37:53;3.88;;;1.58;;
24173;SDS011;12324;48.146;11.502;2023-12-29T10:40:20;3.20;;;1.65;;
24173;SDS011;12324;48.146;11.502;2023-12-29T10:42:51;3.80;;;1.48;;
24173;SDS011;12324;48.146;11.502;2023-12-29T10:47:51;3.58;;;1.63;;
24173;SDS011;12324;48.146;11.502;2023-12-29T10:50:19;2.97;;;1.55;;
24173;SDS011;12324;48.146;11.502;2023-12-29T10:52:46;3.63;;;1.35;;
24173;SDS011;12324;48.146;11.502;2023-12-29T10:55:13;2.38;;;1.63;;
24173;SDS011;12324;48.146;11.502;2023-12-29T10:57:40;5.72;;;1.65;;
24173;SDS011;12324;48.146;11.502;2023-12-29T11:00:07;4.03;;;1.63;;
24173;SDS011;12324;48.146;11.502;2023-12-29T11:02:35;3.47;;;1.48;;
24173;SDS011;12324;48.146;11.502;2023-12-29T11:05:05;3.45;;;1.42;;
24173;SDS011;12324;48.146;11.502;2023-12-29T11:07:36;1.05;;;0.98;;
24173;SDS011;12324;48.146;11.502;2023-12-29T11:10:08;1.45;;;1.35;;
24173;SDS011;12324;48.146;11.502;2023-12-29T11:12:36;1.77;;;1.35;;
24173;SDS011;12324;48.146;11.502;2023-12-29T11:15:04;3.47;;;1.40;;
24173;SDS011;12324;48.146;11.502;2023-12-29T11:17:33;5.10;;;2.13;;
24173;SDS011;12324;48.146;11.502;2023-12-29T11:20:02;2.47;;;1.52;;
24173;SDS011;12324;48.146;11.502;2023-12-29T11:22:31;3.45;;;1.83;;
24173;SDS011;12324;48.146;11.502;2023-12-29T11:24:58;3.15;;;1.70;;
24173;SDS011;12324;48.146;11.502;2023-12-29T11:27:27;1.60;;;1.40;;
24173;SDS011;12324;48.146;11.502;2023-12-29T11:29:58;2.65;;;1.70;;
24173;SDS011;12324;48.146;11.502;2023-12-29T11:32:34;2.92;;;1.70;;
24173;SDS011;12324;48.146;11.502;2023-12-29T11:35:25;3.85;;;1.40;;
24173;SDS011;12324;48.146;11.502;2023-12-29T11:40:34;5.15;;;2.00;;
24173;SDS011;12324;48.146;11.502;2023-12-29T11:43:12;4.20;;;1.88;;
24173;SDS011;12324;48.146;11.502;2023-12-29T11:45:43;3.03;;;1.77;;
24173;SDS011;12324;48.146;11.502;2023-12-29T11:48:11;3.35;;;1.67;;
24173;SDS011;12324;48.146;11.502;2023-12-29T11:50:39;2.25;;;1.63;;
24173;SDS011;12324;48.146;11.502;2023-12-29T11:53:07;4.70;;;2.30;;
24173;SDS011;12324;48.146;11.502;2023-12-29T11:55:37;4.30;;;1.77;;
24173;SDS011;12324;48.146;11.502;2023-12-29T11:58:24;2.13;;;1.52;;
24173;SDS011;12324;48.146;11.502;2023-12-29T12:00:55;2.13;;;1.30;;
24173;SDS011;12324;48.146;11.502;2023-12-29T12:03:25;3.45;;;1.95;;
24173;SDS011;12324;48.146;11.502;2023-12-29T12:05:54;7.35;;;2.08;;
24173;SDS011;12324;48.146;11.502;2023-12-29T12:08:32;3.83;;;1.67;;
24173;SDS011;12324;48.146;11.502;2023-12-29T12:14:03;3.15;;;1.77;;
24173;SDS011;12324;48.146;11.502;2023-12-29T12:19:09;3.63;;;1.30;;
24173;SDS011;12324;48.146;11.502;2023-12-29T12:21:36;3.05;;;1.52;;
24173;SDS011;12324;48.146;11.502;2023-12-29T12:24:04;3.95;;;1.60;;
24173;SDS011;12324;48.146;11.502;2023-12-29T12:26:31;5.38;;;1.67;;
24173;SDS011;12324;48.146;11.502;2023-12-29T12:28:59;2.13;;;1.70;;
24173;SDS011;12324;48.146;11.502;2023-12-29T12:31:26;4.15;;;1.85;;
24173;SDS011;12324;48.146;11.502;2023-12-29T12:33:54;4.10;;;1.80;;
24173;SDS011;12324;48.146;11.502;2023-12-29T12:36:24;1.42;;;1.30;;
24173;SDS011;12324;48.146;11.502;2023-12-29T12:38:53;2.72;;;1.60;;
24173;SDS011;12324;48.146;11.502;2023-12-29T12:41:24;3.38;;;1.70;;
24173;SDS011;12324;48.146;11.502;2023-12-29T12:44:14;2.55;;;1.67;;
24173;SDS011;12324;48.146;11.502;2023-12-29T12:46:50;2.78;;;1.45;;
24173;SDS011;12324;48.146;11.502;2023-12-29T12:49:23;4.50;;;1.58;;
24173;SDS011;12324;48.146;11.502;2023-12-29T12:51:50;2.00;;;1.20;;
24173;SDS011;12324;48.146;11.502;2023-12-29T12:54:19;4.30;;;1.30;;
24173;SDS011;12324;48.146;11.502;2023-12-29T12:56:46;2.67;;;1.45;;
24173;SDS011;12324;48.146;11.502;2023-12-29T12:59:14;1.00;;;0.93;;
24173;SDS011;12324;48.146;11.502;2023-12-29T13:01:41;1.90;;;1.45;;
24173;SDS011;12324;48.146;11.502;2023-12-29T13:04:09;1.98;;;1.40;;
24173;SDS011;12324;48.146;11.502;2023-12-29T13:06:41;3.17;;;1.60;;
24173;SDS011;12324;48.146;11.502;2023-12-29T13:09:13;2.58;;;1.33;;
24173;SDS011;12324;48.146;11.502;2023-12-29T13:11:46;3.53;;;1.48;;
24173;SDS011;12324;48.146;11.502;2023-12-29T13:14:19;2.55;;;1.30;;
24173;SDS011;12324;48.146;11.502;2023-12-29T13:16:49;3.97;;;1.63;;
24173;SDS011;12324;48.146;11.502;2023-12-29T13:19:23;2.80;;;1.60;;
24173;SDS011;12324;48.146;11.502;2023-12-29T13:21:52;2.13;;;1.60;;
24173;SDS011;12324;48.146;11.502;2023-12-29T13:24:22;3.13;;;1.65;;
24173;SDS011;12324;48.146;11.502;2023-12-29T13:26:51;2.75;;;1.50;;
24173;SDS011;12324;48.146;11.502;2023-12-29T13:29:21;1.88;;;1.20;;
24173;SDS011;12324;48.146;11.502;2023-12-29T13:31:53;3.60;;;1.65;;
24173;SDS011;12324;48.146;11.502;2023-12-29T13:34:31;1.65;;;1.42;;
24173;SDS011;12324;48.146;11.502;2023-12-29T13:39:37;2.83;;;1.70;;
24173;SDS011;12324;48.146;11.502;2023-12-29T13:42:10;2.83;;;1.47;;
24173;SDS011;12324;48.146;11.502;2023-12-29T13:44:39;1.73;;;1.30;;
24173;SDS011;12324;48.146;11.502;2023-12-29T13:47:09;1.98;;;1.33;;
24173;SDS011;12324;48.146;11.502;2023-12-29T13:49:37;1.42;;;1.20;;
24173;SDS011;12324;48.146;11.502;2023-12-29T13:52:05;2.75;;;1.77;;
24173;SDS011;12324;48.146;11.502;2023-12-29T13:54:42;1.58;;;1.27;;
24173;SDS011;12324;48.146;11.502;2023-12-29T13:57:09;3.95;;;1.67;;
24173;SDS011;12324;48.146;11.502;2023-12-29T13:59:37;1.83;;;1.20;;
24173;SDS011;12324;48.146;11.502;2023-12-29T14:02:57;3.63;;;1.75;;
24173;SDS011;12324;48.146;11.502;2023-12-29T14:05:31;2.50;;;1.35;;
24173;SDS011;12324;48.146;11.502;2023-12-29T14:10:33;1.77;;;1.48;;
24173;SDS011;12324;48.146;11.502;2023-12-29T14:13:19;3.33;;;1.73;;
24173;SDS011;12324;48.146;11.502;2023-12-29T14:15:46;4.72;;;1.75;;
24173;SDS011;12324;48.146;11.502;2023-12-29T14:20:59;2.45;;;1.20;;
24173;SDS011;12324;48.146;11.502;2023-12-29T14:23:26;2.55;;;1.25;;
24173;SDS011;12324;48.146;11.502;2023-12-29T14:26:01;5.20;;;1.65;;
24173;SDS011;12324;48.146;11.502;2023-12-29T14:28:29;3.38;;;1.60;;
24173;SDS011;12324;48.146;11.502;2023-12-29T14:31:02;1.88;;;1.50;;
24173;SDS011;12324;48.146;11.502;2023-12-29T14:33:29;1.95;;;1.33;;
24173;SDS011;12324;48.146;11.502;2023-12-29T14:35:56;2.97;;;1.08;;
24173;SDS011;12324;48.146;11.502;2023-12-29T14:38:23;2.45;;;1.65;;
24173;SDS011;12324;48.146;11.502;2023-12-29T14:40:51;2.35;;;1.25;;
24173;SDS011;12324;48.146;11.502;2023-12-29T14:43:17;3.28;;;1.52;;
24173;SDS011;12324;48.146;11.502;2023-12-29T14:45:44;2.97;;;1.50;;
24173;SDS011;12324;48.146;11.502;2023-12-29T14:48:11;2.17;;;1.40;;
24173;SDS011;12324;48.146;11.502;2023-12-29T14:50:38;2.28;;;1.45;;
24173;SDS011;12324;48.146;11.502;2023-12-29T14:53:05;1.95;;;1.33;;
24173;SDS011;12324;48.146;11.502;2023-12-29T14:55:32;2.03;;;1.48;;
24173;SDS011;12324;48.146;11.502;2023-12-29T14:57:58;3.20;;;1.80;;
24173;SDS011;12324;48.146;11.502;2023-12-29T15:00:26;3.97;;;1.77;;
24173;SDS011;12324;48.146;11.502;2023-12-29T15:02:53;3.17;;;1.88;;
24173;SDS011;12324;48.146;11.502;2023-12-29T15:05:19;3.85;;;1.83;;
24173;SDS011;12324;48.146;11.502;2023-12-29T15:07:46;5.60;;;1.60;;
24173;SDS011;12324;48.146;11.502;2023-12-29T15:10:13;4.93;;;1.55;;
24173;SDS011;12324;48.146;11.502;2023-12-29T15:12:40;2.22;;;1.70;;
24173;SDS011;12324;48.146;11.502;2023-12-29T15:15:07;4.85;;;2.47;;